Time;durP1;ratioP1;P1;durP2;ratioP2;P2;SDS_P1;SDS_P2;PMS_P1;PMS_P2;Temp;Humidity;BMP_temperature;BMP_pressure;BME280_temperature;BME280_humidity;BME280_pressure;Samples;Min_cycle;Max_cycle;Signal;HPM_P1;HPM_P2
2023/02/14 00:00:29;;;;;;;3.40;3.13;;;;;16.50;102343.00;;;;2086852;28;20209;-50
2023/02/14 00:01:30;;;;;;;3.63;3.07;;;;;16.50;102354.00;;;;2082017;28;20299;-50
2023/02/14 00:02:30;;;;;;;3.60;3.30;;;;;16.50;102334.00;;;;2095181;28;20212;-50
2023/02/14 00:03:30;;;;;;;2.40;2.20;;;;;16.50;102335.00;;;;2090129;28;20296;-50
2023/02/14 00:04:31;;;;;;;3.20;2.90;;;;;16.50;102334.00;;;;2086796;28;20233;-51
2023/02/14 00:05:31;;;;;;;3.60;3.30;;;;;16.50;102332.00;;;;2087329;28;20220;-51
2023/02/14 00:06:34;;;;;;;3.43;3.13;;;;;16.50;102332.00;;;;2087386;28;20259;-51
2023/02/14 00:07:34;;;;;;;3.17;2.90;;;;;16.50;102334.00;;;;2087422;28;20419;-50
2023/02/14 00:08:35;;;;;;;2.80;2.60;;;;;16.50;102329.00;;;;2086690;28;20228;-51
2023/02/14 00:09:35;;;;;;;4.75;2.88;;;;;16.50;102332.00;;;;2087534;28;20231;-50
2023/02/14 00:10:36;;;;;;;3.20;2.90;;;;;16.50;102348.00;;;;2087246;28;20214;-51
2023/02/14 00:11:36;;;;;;;2.93;2.67;;;;;16.50;102335.00;;;;2087450;28;20267;-51
2023/02/14 00:12:37;;;;;;;4.10;3.50;;;;;16.40;102334.00;;;;2087604;28;20225;-50
2023/02/14 00:13:37;;;;;;;2.80;2.60;;;;;16.40;102332.00;;;;2087430;28;20209;-50
2023/02/14 00:15:56;;;;;;;3.08;2.80;;;;;16.40;102332.00;;;;2086598;28;20220;-51
2023/02/14 00:16:56;;;;;;;3.40;3.07;;;;;16.40;102334.00;;;;2086883;28;20235;-51
2023/02/14 00:18:00;;;;;;;3.40;3.10;;;;;16.20;102336.00;;;;2086625;28;20216;-50
2023/02/14 00:19:03;;;;;;;3.20;2.90;;;;;16.40;102330.00;;;;2086173;28;20244;-51
2023/02/14 00:20:04;;;;;;;3.20;2.97;;;;;16.40;102329.00;;;;2087302;28;20212;-51
2023/02/14 00:21:05;;;;;;;3.20;2.90;;;;;16.40;102327.00;;;;2087436;28;20220;-50
2023/02/14 00:22:05;;;;;;;3.60;3.30;;;;;16.40;102332.00;;;;2087355;28;20225;-51
2023/02/14 00:23:05;;;;;;;3.67;3.37;;;;;16.50;102333.00;;;;2087576;28;20217;-50
2023/02/14 00:24:08;;;;;;;3.83;3.23;;;;;16.50;102335.00;;;;2087340;28;20244;-50
2023/02/14 00:25:08;;;;;;;3.22;2.92;;;;;16.50;102325.00;;;;2087100;28;20221;-51
2023/02/14 00:26:13;;;;;;;3.20;2.90;;;;;16.40;102332.00;;;;2087238;28;20300;-51
2023/02/14 00:27:13;;;;;;;3.50;3.20;;;;;16.10;102333.00;;;;2087189;28;20693;-51
2023/02/14 00:28:14;;;;;;;3.33;3.00;;;;;16.40;102325.00;;;;2086167;28;20217;-51
2023/02/14 00:29:16;;;;;;;3.30;3.00;;;;;16.40;102323.00;;;;2087200;28;20217;-50
2023/02/14 00:30:16;;;;;;;3.78;3.45;;;;;16.40;102325.00;;;;2087298;28;20225;-50
2023/02/14 00:31:16;;;;;;;3.27;3.00;;;;;16.50;102329.00;;;;2087502;28;20215;-51
2023/02/14 00:32:17;;;;;;;3.57;2.90;;;;;16.40;102322.00;;;;2087193;28;20216;-51
2023/02/14 00:33:17;;;;;;;3.17;2.90;;;;;16.40;102325.00;;;;2087275;28;20248;-50
2023/02/14 00:34:17;;;;;;;3.10;2.80;;;;;16.40;102325.00;;;;2087212;28;20285;-50
2023/02/14 00:35:18;;;;;;;2.90;2.70;;;;;16.40;102322.00;;;;2087292;28;20213;-51
2023/02/14 00:36:19;;;;;;;3.37;3.07;;;;;16.40;102324.00;;;;2086711;28;20259;-51
2023/02/14 00:37:20;;;;;;;3.30;3.00;;;;;16.40;102321.00;;;;2078581;28;20410;-51
2023/02/14 00:38:20;;;;;;;3.40;3.10;;;;;16.40;102327.00;;;;2077486;28;20221;-51
2023/02/14 00:39:20;;;;;;;3.07;2.80;;;;;16.40;102326.00;;;;2087298;28;20240;-51
2023/02/14 00:40:21;;;;;;;3.10;2.80;;;;;16.40;102325.00;;;;2087297;28;20228;-50
2023/02/14 00:41:21;;;;;;;3.87;3.57;;;;;16.40;102323.00;;;;2086804;28;20232;-51
2023/02/14 00:42:21;;;;;;;3.37;3.00;;;;;16.40;102314.00;;;;2087346;28;20221;-51
2023/02/14 00:43:22;;;;;;;4.70;3.73;;;;;16.40;102335.00;;;;2087407;28;20673;-51
2023/02/14 00:44:22;;;;;;;4.10;3.70;;;;;16.40;102319.00;;;;2087168;28;20758;-50
2023/02/14 00:45:22;;;;;;;3.40;3.10;;;;;16.40;102330.00;;;;2087145;28;20670;-51
2023/02/14 00:46:23;;;;;;;3.20;2.97;;;;;16.40;102326.00;;;;2086711;28;20232;-51
2023/02/14 00:47:23;;;;;;;3.23;2.93;;;;;16.40;102314.00;;;;2087197;28;20585;-51
2023/02/14 00:48:24;;;;;;;3.77;3.47;;;;;16.30;102320.00;;;;2086226;28;20217;-51
2023/02/14 00:49:24;;;;;;;3.17;2.87;;;;;16.40;102317.00;;;;2086853;28;20212;-50
2023/02/14 00:50:24;;;;;;;3.53;3.23;;;;;16.40;102317.00;;;;2087065;28;20221;-50
2023/02/14 00:51:25;;;;;;;3.30;3.00;;;;;16.40;102321.00;;;;2087036;28;20228;-51
2023/02/14 00:52:25;;;;;;;3.27;2.90;;;;;16.40;102327.00;;;;2087196;28;20236;-51
2023/02/14 00:53:25;;;;;;;3.20;2.90;;;;;16.40;102324.00;;;;2086527;28;20205;-51
2023/02/14 00:54:26;;;;;;;4.00;3.00;;;;;16.40;102328.00;;;;2086633;28;20227;-51
2023/02/14 00:55:26;;;;;;;2.93;2.73;;;;;16.40;102332.00;;;;2087082;28;20248;-51
2023/02/14 00:56:26;;;;;;;2.93;2.73;;;;;16.40;102329.00;;;;2087026;28;20658;-50
2023/02/14 00:57:27;;;;;;;3.27;2.97;;;;;16.40;102326.00;;;;2087084;28;20216;-50
2023/02/14 00:58:27;;;;;;;3.10;2.73;;;;;16.40;102327.00;;;;2086315;28;20221;-51
2023/02/14 00:59:27;;;;;;;3.03;2.73;;;;;16.40;102332.00;;;;2087093;28;20252;-51
2023/02/14 01:00:28;;;;;;;3.10;2.80;;;;;16.40;102326.00;;;;2087136;28;20251;-51
2023/02/14 01:01:28;;;;;;;4.67;3.30;;;;;16.40;102329.00;;;;2086791;28;20279;-51
2023/02/14 01:02:28;;;;;;;3.20;2.90;;;;;16.40;102327.00;;;;2086399;28;20217;-51
2023/02/14 01:03:29;;;;;;;3.87;3.57;;;;;16.40;102338.00;;;;2087289;28;20221;-51
2023/02/14 01:04:29;;;;;;;3.37;3.10;;;;;16.40;102328.00;;;;2086855;28;20213;-50
2023/02/14 01:05:29;;;;;;;3.50;3.20;;;;;16.40;102332.00;;;;2087061;28;20221;-50
2023/02/14 01:06:30;;;;;;;3.00;2.70;;;;;16.40;102333.00;;;;2086895;28;20695;-50
2023/02/14 01:07:30;;;;;;;4.20;3.47;;;;;16.40;102339.00;;;;2086834;28;20228;-51
2023/02/14 01:08:30;;;;;;;3.67;2.90;;;;;16.40;102335.00;;;;2085537;28;20220;-51
2023/02/14 01:09:31;;;;;;;3.80;3.27;;;;;16.40;102335.00;;;;2086352;28;20220;-50
2023/02/14 01:10:31;;;;;;;3.23;2.93;;;;;16.40;102337.00;;;;2084174;28;20216;-51
2023/02/14 01:11:32;;;;;;;3.57;3.27;;;;;16.40;102339.00;;;;2086626;28;20328;-50
2023/02/14 01:12:32;;;;;;;2.90;2.60;;;;;16.40;102340.00;;;;2085502;28;20220;-51
2023/02/14 01:13:32;;;;;;;4.37;3.40;;;;;16.40;102348.00;;;;2086925;28;20809;-51
2023/02/14 01:14:33;;;;;;;3.30;3.00;;;;;16.40;102343.00;;;;2086929;28;20658;-50
2023/02/14 01:15:41;;;;;;;3.20;2.90;;;;;16.40;102339.00;;;;2086899;28;20596;-51
2023/02/14 01:16:41;;;;;;;3.45;3.15;;;;;16.40;102332.00;;;;2086683;28;20240;-51
2023/02/14 01:17:41;;;;;;;3.40;3.10;;;;;16.40;102336.00;;;;2087068;28;20217;-51
2023/02/14 01:18:42;;;;;;;3.50;3.20;;;;;16.40;102335.00;;;;2085381;28;20223;-50
2023/02/14 01:19:43;;;;;;;3.63;3.33;;;;;16.40;102335.00;;;;2086357;28;20225;-50
2023/02/14 01:20:44;;;;;;;3.50;3.20;;;;;16.40;102331.00;;;;2086153;28;20622;-50
2023/02/14 01:21:44;;;;;;;3.20;3.00;;;;;16.40;102338.00;;;;2086135;28;20263;-50
2023/02/14 01:22:45;;;;;;;2.90;2.70;;;;;16.40;102334.00;;;;2086993;28;20979;-51
2023/02/14 01:23:46;;;;;;;3.40;3.10;;;;;16.40;102326.00;;;;2086738;28;20213;-51
2023/02/14 01:24:46;;;;;;;3.10;2.90;;;;;16.40;102325.00;;;;2086650;28;20324;-50
2023/02/14 01:25:46;;;;;;;3.10;2.80;;;;;16.40;102332.00;;;;2086791;28;20467;-50
2023/02/14 01:26:47;;;;;;;3.23;2.80;;;;;16.40;102333.00;;;;2086795;28;20217;-51
2023/02/14 01:27:47;;;;;;;3.23;2.93;;;;;16.40;102325.00;;;;2087011;28;20228;-51
2023/02/14 01:28:47;;;;;;;3.40;3.10;;;;;16.40;102322.00;;;;2085604;28;20213;-51
2023/02/14 01:29:48;;;;;;;3.50;3.20;;;;;16.40;102321.00;;;;2086738;28;20204;-51
2023/02/14 01:30:50;;;;;;;3.57;3.27;;;;;16.10;102321.00;;;;2086780;28;20212;-51
2023/02/14 01:31:50;;;;;;;3.67;3.20;;;;;16.40;102324.00;;;;2086727;28;20578;-50
2023/02/14 01:32:51;;;;;;;3.23;2.93;;;;;16.40;102323.00;;;;2086910;28;20296;-51
2023/02/14 01:33:52;;;;;;;3.40;3.10;;;;;16.40;102323.00;;;;2086663;28;20212;-51
2023/02/14 01:34:52;;;;;;;3.20;2.93;;;;;16.40;102319.00;;;;2086803;28;20204;-50
2023/02/14 01:35:52;;;;;;;2.73;2.53;;;;;16.40;102323.00;;;;2085122;28;20213;-51
2023/02/14 01:36:53;;;;;;;3.60;3.27;;;;;16.40;102328.00;;;;2086431;28;20210;-50
2023/02/14 01:37:53;;;;;;;3.20;2.97;;;;;16.40;102329.00;;;;2086397;28;20589;-50
2023/02/14 01:39:04;;;;;;;3.70;3.30;;;;;16.40;102322.00;;;;2086283;28;21074;-51
2023/02/14 01:40:07;;;;;;;4.00;3.60;;;;;16.40;102321.00;;;;2085358;28;20224;-51
2023/02/14 01:41:07;;;;;;;3.35;2.70;;;;;16.40;102320.00;;;;2086090;28;20218;-50
2023/02/14 01:42:09;;;;;;;3.17;2.80;;;;;16.40;102328.00;;;;2085880;28;20225;-50
2023/02/14 01:43:15;;;;;;;2.95;2.65;;;;;16.40;102317.00;;;;2085767;28;20220;-51
2023/02/14 01:44:16;;;;;;;2.80;2.60;;;;;16.40;102321.00;;;;2086647;28;20244;-51
2023/02/14 01:45:20;;;;;;;2.90;2.70;;;;;16.40;102320.00;;;;2086391;28;20227;-51
2023/02/14 01:46:20;;;;;;;4.43;3.40;;;;;16.40;102314.00;;;;2086511;28;20235;-50
2023/02/14 01:47:21;;;;;;;3.00;2.77;;;;;16.40;102295.00;;;;2086303;28;20248;-51
2023/02/14 01:48:21;;;;;;;3.73;3.40;;;;;16.40;102297.00;;;;2076768;28;20210;-51
2023/02/14 01:49:25;;;;;;;2.60;2.40;;;;;16.40;102322.00;;;;2077162;28;20232;-50
2023/02/14 01:50:29;;;;;;;2.83;2.63;;;;;16.40;102318.00;;;;2085935;28;20201;-51
2023/02/14 01:51:29;;;;;;;2.90;2.67;;;;;16.40;102315.00;;;;2084047;28;20207;-51
2023/02/14 01:52:34;;;;;;;3.10;2.80;;;;;16.40;102319.00;;;;2077035;28;20584;-51
2023/02/14 01:53:35;;;;;;;3.08;2.80;;;;;16.40;102312.00;;;;2077806;28;20721;-50
2023/02/14 01:54:37;;;;;;;3.50;3.00;;;;;16.40;102320.00;;;;2085482;28;20227;-51
2023/02/14 01:55:43;;;;;;;2.97;2.75;;;;;16.40;102313.00;;;;2077299;28;20229;-51
2023/02/14 01:56:45;;;;;;;3.10;2.90;;;;;16.40;102322.00;;;;2077642;28;20215;-50
2023/02/14 01:57:51;;;;;;;2.85;2.65;;;;;16.40;102318.00;;;;2085225;28;20442;-51
2023/02/14 01:58:52;;;;;;;3.22;2.92;;;;;16.40;102324.00;;;;2085450;28;21050;-50
2023/02/14 01:59:55;;;;;;;3.10;2.80;;;;;16.40;102314.00;;;;2086127;28;20223;-51
2023/02/14 02:00:55;;;;;;;3.30;3.00;;;;;16.40;102321.00;;;;2085110;28;20677;-51
2023/02/14 02:01:56;;;;;;;2.90;2.70;;;;;16.30;102318.00;;;;2077174;28;20225;-51
2023/02/14 02:02:56;;;;;;;3.17;2.87;;;;;16.40;102315.00;;;;2085352;28;20217;-51
2023/02/14 02:03:59;;;;;;;3.63;3.33;;;;;16.40;102324.00;;;;2077126;28;20240;-51
2023/02/14 02:04:59;;;;;;;3.00;2.80;;;;;16.40;102317.00;;;;2069013;28;20218;-50
2023/02/14 02:06:14;;;;;;;2.97;2.73;;;;;16.40;102321.00;;;;2077343;28;20218;-51
2023/02/14 02:07:17;;;;;;;3.03;2.80;;;;;16.30;102325.00;;;;2085040;28;20650;-50
2023/02/14 02:08:18;;;;;;;3.17;2.88;;;;;16.30;102328.00;;;;2078155;28;20324;-51
2023/02/14 02:09:24;;;;;;;2.97;2.77;;;;;16.30;102321.00;;;;2077360;28;20344;-51
2023/02/14 02:10:24;;;;;;;2.40;2.20;;;;;16.40;102305.00;;;;2085364;28;21083;-51
2023/02/14 02:11:25;;;;;;;3.10;2.90;;;;;16.30;102323.00;;;;2085723;28;20238;-50
2023/02/14 02:12:25;;;;;;;3.37;3.07;;;;;16.40;102314.00;;;;2085486;28;21058;-51
2023/02/14 02:13:26;;;;;;;3.10;2.80;;;;;16.40;102317.00;;;;2085157;28;20240;-51
2023/02/14 02:14:26;;;;;;;2.90;2.70;;;;;16.30;102311.00;;;;2086124;28;20297;-50
2023/02/14 02:15:26;;;;;;;2.97;2.70;;;;;16.30;102317.00;;;;2086123;28;20681;-51
2023/02/14 02:16:58;;;;;;;3.33;3.00;;;;;16.40;102311.00;;;;2085331;28;20209;-50
2023/02/14 02:18:04;;;;;;;3.25;2.95;;;;;16.30;102308.00;;;;2080004;28;20294;-51
2023/02/14 02:19:20;;;;;;;3.05;2.80;;;;;16.30;102309.00;;;;2084851;28;20692;-51
2023/02/14 02:20:39;;;;;;;2.88;2.53;;;;;16.30;102314.00;;;;2085776;28;20259;-51
2023/02/14 02:21:50;;;;;;;3.00;2.70;;;;;16.30;102318.00;;;;2085672;28;20677;-50
2023/02/14 02:23:21;;;;;;;2.78;2.58;;;;;16.30;102307.00;;;;2085023;28;20239;-51
2023/02/14 02:24:29;;;;;;;3.00;2.65;;;;;16.30;102286.00;;;;2086115;28;20688;-50
2023/02/14 02:25:59;;;;;;;3.05;2.85;;;;;16.30;102313.00;;;;2085922;28;20213;-50
2023/02/14 02:27:04;;;;;;;3.30;3.00;;;;;16.30;102308.00;;;;2058591;28;20308;-50
2023/02/14 02:28:40;;;;;;;2.97;2.78;;;;;16.30;102309.00;;;;2084712;28;20209;-51
2023/02/14 02:30:05;;;;;;;3.58;3.15;;;;;16.30;102308.00;;;;2081818;28;20601;-51
2023/02/14 02:31:24;;;;;;;3.20;2.55;;;;;16.30;102300.00;;;;2086301;28;20270;-51
2023/02/14 02:32:49;;;;;;;2.95;2.65;;;;;16.30;102303.00;;;;2086351;28;20263;-51
2023/02/14 02:34:03;;;;;;;3.10;2.85;;;;;16.30;102298.00;;;;2086166;28;20217;-50
2023/02/14 02:35:31;;;;;;;3.35;2.85;;;;;16.30;102298.00;;;;2085929;28;20217;-51
2023/02/14 02:36:35;;;;;;;2.80;2.60;;;;;16.30;102290.00;;;;2081163;28;20239;-50
2023/02/14 02:37:39;;;;;;;3.05;2.80;;;;;16.30;102290.00;;;;2080489;28;20209;-50
2023/02/14 02:39:01;;;;;;;2.90;2.70;;;;;16.30;102292.00;;;;2076797;28;20753;-51
2023/02/14 02:40:10;;;;;;;2.55;2.35;;;;;16.30;102295.00;;;;2086035;28;21101;-51
2023/02/14 02:41:18;;;;;;;2.95;2.75;;;;;16.30;102294.00;;;;2086521;28;20213;-51
2023/02/14 02:42:18;;;;;;;5.43;2.63;;;;;16.30;102285.00;;;;2085493;28;20231;-51
2023/02/14 02:43:42;;;;;;;2.73;2.53;;;;;16.30;102283.00;;;;2084884;28;20263;-51
2023/02/14 02:45:01;;;;;;;3.80;3.10;;;;;16.30;102282.00;;;;2086371;28;20236;-51
2023/02/14 02:47:37;;;;;;;3.50;3.20;;;;;16.30;102286.00;;;;2077459;28;20292;-51
2023/02/14 02:48:55;;;;;;;3.88;3.50;;;;;16.30;102286.00;;;;2067534;28;20288;-50
2023/02/14 02:53:18;;;;;;;2.80;2.60;;;;;16.30;102283.00;;;;2086919;28;20216;-51
2023/02/14 02:54:28;;;;;;;3.05;2.75;;;;;16.30;102281.00;;;;2082388;28;20771;-55
2023/02/14 02:57:12;;;;;;;2.90;2.70;;;;;16.30;102283.00;;;;2081755;28;20605;-50
2023/02/14 02:58:12;;;;;;;2.92;2.63;;;;;16.30;102263.00;;;;2077950;28;20224;-51
2023/02/14 02:59:33;;;;;;;2.97;2.67;;;;;16.30;102285.00;;;;2060558;28;20228;-50
2023/02/14 03:00:33;;;;;;;4.15;2.90;;;;;16.30;102290.00;;;;2076317;28;20214;-50
2023/02/14 03:01:36;;;;;;;3.13;2.83;;;;;16.30;102290.00;;;;2078847;28;20237;-50
2023/02/14 03:04:51;;;;;;;2.85;2.65;;;;;16.30;102288.00;;;;2071202;28;20210;-50
2023/02/14 03:05:23;;;;;;;3.20;2.90;;;;;16.30;102286.00;;;;2083304;28;20311;-50
2023/02/14 03:06:23;;;;;;;2.50;2.30;;;;;16.30;102288.00;;;;2073750;28;20225;-51
2023/02/14 03:07:40;;;;;;;3.10;2.83;;;;;16.30;102285.00;;;;2078761;28;20300;-51
2023/02/14 03:08:40;;;;;;;3.20;2.50;;;;;16.30;102289.00;;;;2087024;28;20303;-51
2023/02/14 03:09:41;;;;;;;2.93;2.63;;;;;16.30;102292.00;;;;2087881;28;20297;-51
2023/02/14 03:10:41;;;;;;;3.10;2.80;;;;;16.30;102293.00;;;;2087553;28;20235;-50
2023/02/14 03:11:56;;;;;;;2.60;2.40;;;;;16.30;102265.00;;;;2078777;28;20691;-51
2023/02/14 03:13:08;;;;;;;2.88;2.67;;;;;16.30;102292.00;;;;2065780;28;20309;-50
2023/02/14 03:14:25;;;;;;;2.50;2.30;;;;;16.30;102295.00;;;;2075275;28;20221;-51
2023/02/14 03:15:45;;;;;;;3.22;2.92;;;;;16.30;102289.00;;;;2072914;28;20235;-50
2023/02/14 03:17:03;;;;;;;3.05;2.70;;;;;16.30;102284.00;;;;2067615;28;20605;-49
2023/02/14 03:20:15;;;;;;;3.10;2.80;;;;;16.30;102284.00;;;;2086462;28;20216;-50
2023/02/14 03:21:39;;;;;;;2.33;2.13;;;;;16.30;102286.00;;;;2086106;28;20205;-51
2023/02/14 03:23:03;;;;;;;2.42;2.22;;;;;16.30;102270.00;;;;2083023;28;20221;-51
2023/02/14 03:24:27;;;;;;;2.70;2.50;;;;;16.30;102282.00;;;;2072904;28;20304;-51
2023/02/14 03:25:35;;;;;;;2.85;2.55;;;;;16.30;102283.00;;;;2078383;28;20224;-51
2023/02/14 03:26:47;;;;;;;3.17;2.70;;;;;16.30;102289.00;;;;2078921;28;20222;-50
2023/02/14 03:27:52;;;;;;;3.13;2.75;;;;;16.30;102289.00;;;;2079266;28;20241;-51
2023/02/14 03:29:09;;;;;;;2.55;2.35;;;;;16.30;102275.00;;;;2070159;28;20226;-51
2023/02/14 03:30:35;;;;;;;2.92;2.72;;;;;16.30;102287.00;;;;2065732;28;20227;-50
2023/02/14 03:31:55;;;;;;;2.47;2.28;;;;;16.30;102288.00;;;;2076324;28;20236;-50
2023/02/14 03:32:59;;;;;;;2.47;2.28;;;;;16.30;102288.00;;;;2080525;28;21117;-52
2023/02/14 03:34:01;;;;;;;3.00;2.80;;;;;16.30;102287.00;;;;2077645;28;20222;-50
2023/02/14 03:35:17;;;;;;;2.80;2.60;;;;;16.30;102297.00;;;;2078420;28;20584;-50
2023/02/14 03:36:22;;;;;;;2.40;2.20;;;;;16.30;102291.00;;;;2086865;28;20252;-53
2023/02/14 03:37:25;;;;;;;2.83;2.50;;;;;16.30;102284.00;;;;2077593;28;20213;-51
2023/02/14 03:38:42;;;;;;;2.78;2.50;;;;;16.30;102288.00;;;;2077022;28;20217;-50
2023/02/14 03:39:44;;;;;;;2.88;2.60;;;;;16.30;102291.00;;;;2086272;28;20224;-50
2023/02/14 03:40:53;;;;;;;3.17;2.88;;;;;16.30;102280.00;;;;2086512;28;20205;-50
2023/02/14 03:42:24;;;;;;;2.60;2.40;;;;;16.30;102286.00;;;;2070806;28;20318;-50
2023/02/14 03:43:32;;;;;;;2.65;2.45;;;;;16.30;102292.00;;;;2077789;28;20240;-51
2023/02/14 03:44:33;;;;;;;2.53;2.33;;;;;16.30;102283.00;;;;2071187;28;20332;-50
2023/02/14 03:45:45;;;;;;;2.80;2.60;;;;;16.30;102284.00;;;;2071409;28;20234;-51
2023/02/14 03:46:49;;;;;;;3.30;3.00;;;;;16.30;102291.00;;;;2078923;28;20221;-51
2023/02/14 03:47:49;;;;;;;2.97;2.75;;;;;16.30;102260.00;;;;2085135;28;20718;-51
2023/02/14 03:48:50;;;;;;;2.40;2.20;;;;;16.30;102290.00;;;;2076979;28;20225;-50
2023/02/14 03:49:56;;;;;;;2.53;2.33;;;;;16.30;102293.00;;;;2077604;28;20213;-51
2023/02/14 03:50:56;;;;;;;2.50;2.30;;;;;16.30;102289.00;;;;2077908;28;20287;-51
2023/02/14 03:51:57;;;;;;;2.60;2.40;;;;;16.30;102283.00;;;;2077001;28;20214;-51
2023/02/14 03:52:57;;;;;;;2.75;2.55;;;;;16.30;102295.00;;;;2077827;28;20222;-51
2023/02/14 03:53:58;;;;;;;2.60;2.40;;;;;16.30;102279.00;;;;2077673;28;20999;-50
2023/02/14 03:54:58;;;;;;;2.57;2.37;;;;;16.30;102288.00;;;;2086100;28;20225;-51
2023/02/14 03:56:25;;;;;;;2.73;2.53;;;;;16.30;102287.00;;;;2077206;28;20224;-51
2023/02/14 03:57:41;;;;;;;2.63;2.42;;;;;16.30;102292.00;;;;2051347;28;20242;-51
2023/02/14 03:58:43;;;;;;;2.65;2.30;;;;;16.30;102262.00;;;;2077005;28;20209;-51
2023/02/14 03:59:44;;;;;;;2.90;2.20;;;;;16.30;102294.00;;;;2054229;28;20215;-51
2023/02/14 04:00:44;;;;;;;2.97;2.67;;;;;16.30;102284.00;;;;2070431;28;20257;-51
2023/02/14 04:02:06;;;;;;;2.73;2.53;;;;;16.30;102293.00;;;;2070079;28;20597;-51
2023/02/14 04:03:10;;;;;;;2.20;2.00;;;;;16.30;102292.00;;;;2080234;28;20240;-50
2023/02/14 04:04:11;;;;;;;2.17;2.00;;;;;16.20;102289.00;;;;2078067;28;20652;-51
2023/02/14 04:05:15;;;;;;;3.00;2.40;;;;;16.30;102287.00;;;;2062249;28;20230;-56
2023/02/14 04:06:16;;;;;;;2.50;2.30;;;;;16.30;102289.00;;;;2070693;28;20226;-51
2023/02/14 04:07:21;;;;;;;2.70;2.50;;;;;16.30;102282.00;;;;2070526;28;20218;-51
2023/02/14 04:08:22;;;;;;;2.50;2.28;;;;;16.20;102282.00;;;;2085570;28;20743;-51
2023/02/14 04:09:23;;;;;;;2.75;2.55;;;;;16.20;102278.00;;;;2087264;28;20212;-50
2023/02/14 04:10:23;;;;;;;3.03;2.77;;;;;16.30;102282.00;;;;2087240;28;20213;-51
2023/02/14 04:11:23;;;;;;;3.20;2.50;;;;;16.30;102281.00;;;;2078076;28;20226;-51
2023/02/14 04:12:24;;;;;;;3.20;2.90;;;;;16.30;102284.00;;;;2078377;28;20213;-51
2023/02/14 04:13:24;;;;;;;2.47;2.27;;;;;16.30;102279.00;;;;2087022;28;20350;-50
2023/02/14 04:14:28;;;;;;;2.47;2.27;;;;;16.20;102282.00;;;;2077834;28;20224;-51
2023/02/14 04:15:28;;;;;;;2.25;2.08;;;;;16.30;102279.00;;;;2078394;28;20288;-51
2023/02/14 04:16:29;;;;;;;2.53;2.33;;;;;16.30;102278.00;;;;2087169;28;20581;-50
2023/02/14 04:20:07;;;;;;;2.72;2.53;;;;;16.30;102275.00;;;;2086687;28;20220;-51
2023/02/14 04:21:07;;;;;;;2.63;2.43;;;;;16.30;102274.00;;;;2087167;28;20225;-51
2023/02/14 04:22:08;;;;;;;2.20;2.00;;;;;16.20;102265.00;;;;2087115;28;20229;-51
2023/02/14 04:23:08;;;;;;;2.70;2.50;;;;;16.20;102272.00;;;;2086839;28;20209;-51
2023/02/14 04:24:08;;;;;;;2.70;2.50;;;;;16.30;102279.00;;;;2085860;28;20267;-51
2023/02/14 04:25:09;;;;;;;2.70;2.50;;;;;16.30;102278.00;;;;2086477;28;20300;-51
2023/02/14 04:26:09;;;;;;;3.00;2.73;;;;;16.30;102269.00;;;;2087227;28;20347;-51
2023/02/14 04:27:09;;;;;;;2.40;2.20;;;;;16.30;102279.00;;;;2087201;28;20214;-52
2023/02/14 04:28:10;;;;;;;2.73;2.30;;;;;16.30;102275.00;;;;2086167;28;20212;-51
2023/02/14 04:29:10;;;;;;;2.07;1.93;;;;;16.30;102278.00;;;;2086937;28;20213;-51
2023/02/14 04:30:11;;;;;;;2.50;2.30;;;;;16.30;102277.00;;;;2086822;28;20452;-51
2023/02/14 04:31:12;;;;;;;2.30;2.10;;;;;16.30;102282.00;;;;2086673;28;20402;-51
2023/02/14 04:32:17;;;;;;;2.80;2.20;;;;;16.30;102279.00;;;;2086638;28;20476;-51
2023/02/14 04:33:17;;;;;;;2.17;1.98;;;;;16.30;102270.00;;;;2086735;28;20216;-51
2023/02/14 04:34:17;;;;;;;2.53;2.33;;;;;16.30;102277.00;;;;2086631;28;20705;-51
2023/02/14 04:35:18;;;;;;;2.23;2.00;;;;;16.30;102278.00;;;;2086911;28;20220;-52
2023/02/14 04:36:18;;;;;;;2.20;2.00;;;;;16.30;102279.00;;;;2086542;28;20259;-49
2023/02/14 04:37:18;;;;;;;2.87;2.67;;;;;16.20;102263.00;;;;2087273;28;20288;-51
2023/02/14 04:38:19;;;;;;;2.90;2.70;;;;;16.20;102267.00;;;;2086101;28;20209;-51
2023/02/14 04:39:19;;;;;;;2.60;2.40;;;;;16.20;102268.00;;;;2087362;28;20232;-51
2023/02/14 04:40:19;;;;;;;2.83;2.53;;;;;16.20;102259.00;;;;2087088;28;20213;-51
2023/02/14 04:41:20;;;;;;;2.87;2.67;;;;;16.20;102267.00;;;;2087130;28;20229;-51
2023/02/14 04:42:20;;;;;;;2.60;2.40;;;;;16.20;102261.00;;;;2087275;28;20267;-51
2023/02/14 04:43:20;;;;;;;2.60;2.40;;;;;16.20;102257.00;;;;2087338;28;20209;-51
2023/02/14 04:44:21;;;;;;;2.60;2.40;;;;;16.30;102262.00;;;;2087206;28;20254;-50
2023/02/14 04:45:21;;;;;;;2.50;2.10;;;;;16.30;102270.00;;;;2087233;28;20255;-51
2023/02/14 04:46:21;;;;;;;2.70;2.50;;;;;16.20;102267.00;;;;2086982;28;20224;-51
2023/02/14 04:47:22;;;;;;;2.80;2.60;;;;;16.20;102266.00;;;;2086760;28;20209;-50
2023/02/14 04:48:22;;;;;;;2.37;2.17;;;;;16.20;102269.00;;;;2085982;28;20376;-51
2023/02/14 04:49:22;;;;;;;3.27;2.50;;;;;16.20;102261.00;;;;2087143;28;20217;-51
2023/02/14 04:50:24;;;;;;;2.70;2.50;;;;;16.30;102258.00;;;;2087361;28;20240;-50
2023/02/14 04:51:25;;;;;;;2.72;2.53;;;;;16.20;102255.00;;;;2087146;28;20269;-51
2023/02/14 04:52:25;;;;;;;2.80;2.43;;;;;16.20;102259.00;;;;2087386;28;20696;-51
2023/02/14 04:53:25;;;;;;;3.17;2.90;;;;;16.20;102274.00;;;;2087150;28;20209;-51
2023/02/14 04:54:26;;;;;;;2.50;2.30;;;;;16.20;102259.00;;;;2087038;28;20592;-51
2023/02/14 04:55:26;;;;;;;2.67;2.47;;;;;16.20;102261.00;;;;2087255;28;20668;-51
2023/02/14 04:56:26;;;;;;;2.30;2.10;;;;;16.30;102254.00;;;;2087071;28;20221;-50
2023/02/14 04:57:27;;;;;;;2.27;2.00;;;;;16.30;102263.00;;;;2086630;28;20209;-51
2023/02/14 04:58:27;;;;;;;2.40;2.20;;;;;16.20;102249.00;;;;2086219;28;20712;-50
2023/02/14 04:59:27;;;;;;;2.03;1.93;;;;;16.20;102259.00;;;;2087248;28;25853;-52
2023/02/14 05:00:28;;;;;;;2.40;2.20;;;;;16.20;102253.00;;;;2087311;28;20240;-50
2023/02/14 05:01:28;;;;;;;3.03;2.73;;;;;16.20;102249.00;;;;2087032;28;20224;-50
2023/02/14 05:02:28;;;;;;;2.53;2.30;;;;;16.20;102258.00;;;;2086896;28;20767;-51
2023/02/14 05:03:29;;;;;;;2.70;2.50;;;;;16.20;102247.00;;;;2087276;28;20669;-51
2023/02/14 05:04:29;;;;;;;2.40;2.20;;;;;16.20;102241.00;;;;2086896;28;20225;-51
2023/02/14 05:05:29;;;;;;;2.60;2.40;;;;;16.20;102253.00;;;;2087203;28;20248;-51
2023/02/14 05:06:30;;;;;;;3.27;2.40;;;;;16.20;102244.00;;;;2087120;28;20217;-50
2023/02/14 05:07:30;;;;;;;2.67;2.47;;;;;16.20;102239.00;;;;2086688;28;20212;-51
2023/02/14 05:08:30;;;;;;;2.70;2.50;;;;;16.20;102243.00;;;;2085928;28;20791;-50
2023/02/14 05:09:31;;;;;;;2.60;2.40;;;;;16.20;102242.00;;;;2087073;28;20665;-51
2023/02/14 05:10:31;;;;;;;2.77;2.57;;;;;16.20;102238.00;;;;2086525;28;20224;-51
2023/02/14 05:11:31;;;;;;;2.97;2.77;;;;;16.20;102236.00;;;;2086729;28;20235;-51
2023/02/14 05:12:32;;;;;;;2.20;2.00;;;;;16.20;102234.00;;;;2086962;28;20223;-50
2023/02/14 05:13:32;;;;;;;2.60;2.40;;;;;16.20;102236.00;;;;2086988;28;20221;-50
2023/02/14 05:14:32;;;;;;;2.80;2.50;;;;;16.20;102237.00;;;;2086312;28;20304;-51
2023/02/14 05:15:33;;;;;;;3.40;2.50;;;;;16.20;102235.00;;;;2086776;28;20225;-51
2023/02/14 05:16:33;;;;;;;2.93;2.63;;;;;16.20;102233.00;;;;2084958;28;20220;-50
2023/02/14 05:17:34;;;;;;;2.93;2.73;;;;;16.20;102231.00;;;;2086325;28;20245;-51
2023/02/14 05:18:35;;;;;;;2.72;2.42;;;;;16.20;102233.00;;;;2085640;28;20213;-50
2023/02/14 05:19:35;;;;;;;3.10;2.80;;;;;16.20;102241.00;;;;2086814;28;20775;-51
2023/02/14 05:20:35;;;;;;;2.70;2.50;;;;;16.20;102235.00;;;;2086796;28;20722;-50
2023/02/14 05:21:37;;;;;;;2.30;2.10;;;;;16.20;102229.00;;;;2086557;28;20693;-51
2023/02/14 05:22:37;;;;;;;2.70;2.50;;;;;16.20;102231.00;;;;2086131;28;20209;-50
2023/02/14 05:23:37;;;;;;;2.53;2.33;;;;;16.20;102231.00;;;;2085960;28;20236;-50
2023/02/14 05:24:38;;;;;;;3.53;2.57;;;;;16.20;102233.00;;;;2086735;28;20209;-51
2023/02/14 05:25:39;;;;;;;2.80;2.60;;;;;16.20;102230.00;;;;2086789;28;20217;-51
2023/02/14 05:26:39;;;;;;;2.85;2.40;;;;;16.20;102218.00;;;;2087004;28;20220;-51
2023/02/14 05:27:40;;;;;;;3.17;2.87;;;;;16.20;102222.00;;;;2086752;28;20692;-51
2023/02/14 05:28:41;;;;;;;2.90;2.70;;;;;16.20;102224.00;;;;2085767;28;20204;-50
2023/02/14 05:29:41;;;;;;;2.92;2.65;;;;;16.20;102221.00;;;;2087010;28;20582;-50